Yellowstone National Park, WY

8:03 PM MDT on September 01, 2014 (GMT -0600)
Yellowstone | Change Station
CLOSE
Current Station
Airport
Location: West Yellowstone,
Elevation: 6644 ft
Nearby Weather Stations

Elev 6644 ft 44.69 °N, 111.12 °W | Updated 13 minutes ago

Clear
Clear
55 °F
Feels Like 55 °F
N
12
Wind Variable Wind from SW

Today
High -- | Low -- °F
--% Chance of Precip.
Yesterday
High -- | Low -- °F
Precip. -- in
6:44 AM 7:58 PM
Waxing Crescent, 46% visible
Pressure 30.13 in
Visibility 10.0 miles
Clouds Clear
Dew Point 39 °F
Humidity 54%
Rainfall 0.03 in
Snow Depth Not available.
UV 0 out of 12
Pollen 7.20 out of 12
Air Quality Not available.
Flu Activity Not available.
METAR KWYS 020150Z AUTO 22010KT 10SM CLR 13/04 A3013 RMK AO2

More Conditions Fewer Conditions

Pressure 30.13 in
Visibility 10.0 miles
Clouds Clear
Dew Point 39 °F
Humidity 54%
Rainfall 0.03 in
Snow Depth Not available.
UV 0 out of 12
Pollen 7.20 out of 12
Air Quality Not available.
Flu Activity Not available.
METAR KWYS 020150Z AUTO 22010KT 10SM CLR 13/04 A3013 RMK AO2

More Conditions Fewer Conditions

10-Day Weather Forecast

Almanac

Astronomy

Sep. 01, 2014 Rise Set
Actual Time 6:44 AM MDT 7:58 PM MDT
Civil Twilight 6:13 AM MDT 8:28 PM MDT
Nautical Twilight 5:37 AM MDT 9:04 PM MDT
Astronomical Twilight 4:58 AM MDT 9:43 PM MDT
Moon 1:50 PM MDT (9/1) 11:44 PM MDT (9/1)
Length of Visible Light 14h 14m
Length of Day
13h 14m
Tomorrow will be 3m 0s shorter.
Waxing Crescent, 46% of the Moon is Illuminated
Today
Waxing Crescent
Sep 2
First Quarter
Sep 8
Full
Sep 15
Last Quarter
Sep 24
New

Today's Extremes

State Highs State Lows

Community

WunderPhotos

Upload Photos

1,749,493 photos uploaded!

Nearby

Snow Depth

Station Depth Elevation
Parker Peak 0 in 9400 ft
Sylvan Road 0 in 7120 ft
Thumb Divide 0 in 7980 ft
Evening Star 0 in 9200 ft
Lewis Lake Divide 1 in 7850 ft

Earthquake Activity

City Distance Mag. Time & Date
Driggs, Idaho 77 miles 3.8 2:09 PM MDT
2014-08-30
Minimum magnitude displayed is 2.5.

Coastal Water Temperatures

Place Temperature
No Stations Reporting

Nearby Weather Stations